North Springfield, Pennsylvania
Current Conditions -  °F | °C
As of 5:08 PM on Saturday 25 Oct 2014 (Local Time) from KERI Reporting Station
Few Clouds Few Clouds  
Wind Chill: 61°   Ceiling: Unl
Heat Index: 61°   Visibility: 8mi
Dew Point: 52°   Wind: 16mph
Humidity: 72%   Direction: 260°W
Pressure: 29.7"   Gusts: 24mph
Location:  41.99°N, 80.42°W
Report Text: KERI 252108Z 26014G21KT 8SM FEW022 16/11 A2970 RMK AO2
Loading
Personal Weather Stations






























Interactive Weather Map
Tropical Storm Tracking
New forecast layout! Learn more

10-Day Weather Forecast

Advertisements
Track Severe Weather on mobile